sensor_id;sensor_type;location;lat;lon;timestamp;P1;durP1;ratioP1;P2;durP2;ratioP2
19998;SDS011;10160;50.926;4.374;2023-03-01T00:01:31;18.10;;;10.67;;
19998;SDS011;10160;50.926;4.374;2023-03-01T00:03:57;17.43;;;10.67;;
19998;SDS011;10160;50.926;4.374;2023-03-01T00:06:24;16.10;;;10.43;;
19998;SDS011;10160;50.926;4.374;2023-03-01T00:08:51;15.70;;;10.83;;
19998;SDS011;10160;50.926;4.374;2023-03-01T00:11:21;15.47;;;9.80;;
19998;SDS011;10160;50.926;4.374;2023-03-01T00:13:54;15.33;;;10.27;;
19998;SDS011;10160;50.926;4.374;2023-03-01T00:16:28;18.37;;;10.40;;
19998;SDS011;10160;50.926;4.374;2023-03-01T00:18:58;19.47;;;11.23;;
19998;SDS011;10160;50.926;4.374;2023-03-01T00:21:24;18.17;;;10.40;;
19998;SDS011;10160;50.926;4.374;2023-03-01T00:23:51;17.10;;;10.40;;
19998;SDS011;10160;50.926;4.374;2023-03-01T00:26:17;18.33;;;10.67;;
19998;SDS011;10160;50.926;4.374;2023-03-01T00:28:44;14.93;;;9.60;;
19998;SDS011;10160;50.926;4.374;2023-03-01T00:31:14;16.87;;;10.47;;
19998;SDS011;10160;50.926;4.374;2023-03-01T00:33:41;16.77;;;10.30;;
19998;SDS011;10160;50.926;4.374;2023-03-01T00:36:08;16.80;;;10.40;;
19998;SDS011;10160;50.926;4.374;2023-03-01T00:38:35;17.60;;;10.57;;
19998;SDS011;10160;50.926;4.374;2023-03-01T00:41:03;16.70;;;10.00;;
19998;SDS011;10160;50.926;4.374;2023-03-01T00:43:30;16.93;;;10.53;;
19998;SDS011;10160;50.926;4.374;2023-03-01T00:45:56;18.30;;;10.87;;
19998;SDS011;10160;50.926;4.374;2023-03-01T00:48:26;15.50;;;10.27;;
19998;SDS011;10160;50.926;4.374;2023-03-01T00:50:52;18.03;;;10.20;;
19998;SDS011;10160;50.926;4.374;2023-03-01T00:53:17;17.70;;;10.40;;
19998;SDS011;10160;50.926;4.374;2023-03-01T00:55:43;17.47;;;9.83;;
19998;SDS011;10160;50.926;4.374;2023-03-01T00:58:09;15.63;;;9.90;;
19998;SDS011;10160;50.926;4.374;2023-03-01T01:00:34;16.97;;;10.07;;
19998;SDS011;10160;50.926;4.374;2023-03-01T01:03:00;15.97;;;9.93;;
19998;SDS011;10160;50.926;4.374;2023-03-01T01:05:26;17.80;;;10.57;;
19998;SDS011;10160;50.926;4.374;2023-03-01T01:07:52;19.00;;;10.53;;
19998;SDS011;10160;50.926;4.374;2023-03-01T01:10:17;20.00;;;10.73;;
19998;SDS011;10160;50.926;4.374;2023-03-01T01:12:44;15.90;;;9.90;;
19998;SDS011;10160;50.926;4.374;2023-03-01T01:15:10;14.90;;;9.30;;
19998;SDS011;10160;50.926;4.374;2023-03-01T01:17:39;16.53;;;10.33;;
19998;SDS011;10160;50.926;4.374;2023-03-01T01:20:05;15.83;;;10.23;;
19998;SDS011;10160;50.926;4.374;2023-03-01T01:22:31;17.00;;;9.97;;
19998;SDS011;10160;50.926;4.374;2023-03-01T01:24:57;16.03;;;10.57;;
19998;SDS011;10160;50.926;4.374;2023-03-01T01:27:22;17.83;;;10.07;;
19998;SDS011;10160;50.926;4.374;2023-03-01T01:29:48;17.43;;;10.53;;
19998;SDS011;10160;50.926;4.374;2023-03-01T01:32:14;22.07;;;10.60;;
19998;SDS011;10160;50.926;4.374;2023-03-01T01:34:39;15.00;;;9.83;;
19998;SDS011;10160;50.926;4.374;2023-03-01T01:37:05;18.20;;;10.33;;
19998;SDS011;10160;50.926;4.374;2023-03-01T01:39:33;16.60;;;10.37;;
19998;SDS011;10160;50.926;4.374;2023-03-01T01:42:00;18.13;;;10.40;;
19998;SDS011;10160;50.926;4.374;2023-03-01T01:44:27;17.97;;;10.03;;
19998;SDS011;10160;50.926;4.374;2023-03-01T01:47:07;16.97;;;10.20;;
19998;SDS011;10160;50.926;4.374;2023-03-01T01:52:22;16.20;;;9.50;;
19998;SDS011;10160;50.926;4.374;2023-03-01T01:58:06;17.77;;;9.73;;
19998;SDS011;10160;50.926;4.374;2023-03-01T02:00:29;16.93;;;9.43;;
19998;SDS011;10160;50.926;4.374;2023-03-01T02:02:56;16.70;;;10.30;;
19998;SDS011;10160;50.926;4.374;2023-03-01T02:05:35;15.90;;;9.70;;
19998;SDS011;10160;50.926;4.374;2023-03-01T02:08:13;16.50;;;9.80;;
19998;SDS011;10160;50.926;4.374;2023-03-01T02:10:42;15.83;;;9.23;;
19998;SDS011;10160;50.926;4.374;2023-03-01T02:13:08;17.63;;;9.57;;
19998;SDS011;10160;50.926;4.374;2023-03-01T02:15:35;17.20;;;9.10;;
19998;SDS011;10160;50.926;4.374;2023-03-01T02:18:04;15.73;;;10.43;;
19998;SDS011;10160;50.926;4.374;2023-03-01T02:23:10;16.63;;;9.87;;
19998;SDS011;10160;50.926;4.374;2023-03-01T02:28:36;14.30;;;9.17;;
19998;SDS011;10160;50.926;4.374;2023-03-01T02:31:07;16.33;;;10.10;;
19998;SDS011;10160;50.926;4.374;2023-03-01T02:33:54;19.97;;;9.77;;
19998;SDS011;10160;50.926;4.374;2023-03-01T02:36:22;15.83;;;9.80;;
19998;SDS011;10160;50.926;4.374;2023-03-01T02:38:52;16.53;;;9.17;;
19998;SDS011;10160;50.926;4.374;2023-03-01T02:41:20;15.93;;;10.20;;
19998;SDS011;10160;50.926;4.374;2023-03-01T02:43:48;18.50;;;10.27;;
19998;SDS011;10160;50.926;4.374;2023-03-01T02:46:15;15.63;;;10.07;;
19998;SDS011;10160;50.926;4.374;2023-03-01T02:48:52;17.93;;;10.07;;
19998;SDS011;10160;50.926;4.374;2023-03-01T02:56:41;16.93;;;10.47;;
19998;SDS011;10160;50.926;4.374;2023-03-01T02:59:08;17.00;;;10.07;;
19998;SDS011;10160;50.926;4.374;2023-03-01T03:01:35;14.43;;;9.73;;
19998;SDS011;10160;50.926;4.374;2023-03-01T03:04:04;17.17;;;10.73;;
19998;SDS011;10160;50.926;4.374;2023-03-01T03:06:31;19.07;;;10.80;;
19998;SDS011;10160;50.926;4.374;2023-03-01T03:08:57;18.23;;;10.73;;
19998;SDS011;10160;50.926;4.374;2023-03-01T03:11:23;17.63;;;10.37;;
19998;SDS011;10160;50.926;4.374;2023-03-01T03:13:49;16.87;;;10.43;;
19998;SDS011;10160;50.926;4.374;2023-03-01T03:16:15;17.63;;;10.50;;
19998;SDS011;10160;50.926;4.374;2023-03-01T03:18:41;18.07;;;10.17;;
19998;SDS011;10160;50.926;4.374;2023-03-01T03:21:10;15.97;;;10.70;;
19998;SDS011;10160;50.926;4.374;2023-03-01T03:23:37;18.90;;;10.50;;
19998;SDS011;10160;50.926;4.374;2023-03-01T03:26:03;18.10;;;10.63;;
19998;SDS011;10160;50.926;4.374;2023-03-01T03:28:30;20.23;;;11.63;;
19998;SDS011;10160;50.926;4.374;2023-03-01T03:30:57;18.90;;;10.43;;
19998;SDS011;10160;50.926;4.374;2023-03-01T03:33:23;16.27;;;10.10;;
19998;SDS011;10160;50.926;4.374;2023-03-01T03:35:49;18.47;;;10.60;;
19998;SDS011;10160;50.926;4.374;2023-03-01T03:38:15;17.87;;;10.73;;
19998;SDS011;10160;50.926;4.374;2023-03-01T03:41:03;19.90;;;11.47;;
19998;SDS011;10160;50.926;4.374;2023-03-01T03:43:33;20.93;;;11.10;;
19998;SDS011;10160;50.926;4.374;2023-03-01T03:46:00;21.97;;;11.43;;
19998;SDS011;10160;50.926;4.374;2023-03-01T03:48:30;19.03;;;11.57;;
19998;SDS011;10160;50.926;4.374;2023-03-01T03:50:58;19.33;;;12.07;;
19998;SDS011;10160;50.926;4.374;2023-03-01T03:53:25;19.37;;;11.90;;
19998;SDS011;10160;50.926;4.374;2023-03-01T03:55:51;20.47;;;11.53;;
19998;SDS011;10160;50.926;4.374;2023-03-01T03:58:18;24.27;;;12.83;;
19998;SDS011;10160;50.926;4.374;2023-03-01T04:00:46;19.27;;;11.87;;
19998;SDS011;10160;50.926;4.374;2023-03-01T04:03:14;23.67;;;12.77;;
19998;SDS011;10160;50.926;4.374;2023-03-01T04:05:41;20.00;;;12.17;;
19998;SDS011;10160;50.926;4.374;2023-03-01T04:08:07;18.83;;;11.50;;
19998;SDS011;10160;50.926;4.374;2023-03-01T04:10:35;21.53;;;12.30;;
19998;SDS011;10160;50.926;4.374;2023-03-01T04:13:06;22.87;;;12.67;;
19998;SDS011;10160;50.926;4.374;2023-03-01T04:15:33;21.13;;;12.40;;
19998;SDS011;10160;50.926;4.374;2023-03-01T04:17:59;17.77;;;11.60;;
19998;SDS011;10160;50.926;4.374;2023-03-01T04:20:27;19.17;;;11.90;;
19998;SDS011;10160;50.926;4.374;2023-03-01T04:25:56;20.47;;;11.80;;
19998;SDS011;10160;50.926;4.374;2023-03-01T04:28:40;19.90;;;11.83;;
19998;SDS011;10160;50.926;4.374;2023-03-01T04:31:11;18.97;;;11.53;;
19998;SDS011;10160;50.926;4.374;2023-03-01T04:33:43;18.90;;;11.40;;
19998;SDS011;10160;50.926;4.374;2023-03-01T04:36:11;24.53;;;11.23;;
19998;SDS011;10160;50.926;4.374;2023-03-01T04:38:38;19.90;;;11.83;;
19998;SDS011;10160;50.926;4.374;2023-03-01T04:41:09;19.77;;;12.27;;
19998;SDS011;10160;50.926;4.374;2023-03-01T04:43:36;18.80;;;11.70;;
19998;SDS011;10160;50.926;4.374;2023-03-01T04:46:09;18.57;;;11.27;;
19998;SDS011;10160;50.926;4.374;2023-03-01T04:48:37;21.10;;;11.07;;
19998;SDS011;10160;50.926;4.374;2023-03-01T04:51:05;20.50;;;12.13;;
19998;SDS011;10160;50.926;4.374;2023-03-01T04:53:31;17.07;;;11.23;;
19998;SDS011;10160;50.926;4.374;2023-03-01T04:55:57;33.17;;;11.27;;
19998;SDS011;10160;50.926;4.374;2023-03-01T04:58:23;18.33;;;11.33;;
19998;SDS011;10160;50.926;4.374;2023-03-01T05:00:51;19.70;;;11.47;;
19998;SDS011;10160;50.926;4.374;2023-03-01T05:03:17;21.70;;;11.53;;
19998;SDS011;10160;50.926;4.374;2023-03-01T05:05:43;18.73;;;11.10;;
19998;SDS011;10160;50.926;4.374;2023-03-01T05:08:10;17.97;;;10.77;;
19998;SDS011;10160;50.926;4.374;2023-03-01T05:10:43;19.87;;;12.03;;
19998;SDS011;10160;50.926;4.374;2023-03-01T05:13:11;17.23;;;11.03;;
19998;SDS011;10160;50.926;4.374;2023-03-01T05:15:38;16.57;;;10.63;;
19998;SDS011;10160;50.926;4.374;2023-03-01T05:18:04;19.37;;;12.07;;
19998;SDS011;10160;50.926;4.374;2023-03-01T05:20:36;23.83;;;11.63;;
19998;SDS011;10160;50.926;4.374;2023-03-01T05:23:02;17.87;;;11.33;;
19998;SDS011;10160;50.926;4.374;2023-03-01T05:25:30;19.20;;;11.00;;
19998;SDS011;10160;50.926;4.374;2023-03-01T05:27:59;22.37;;;11.60;;
19998;SDS011;10160;50.926;4.374;2023-03-01T05:30:29;17.97;;;11.37;;
19998;SDS011;10160;50.926;4.374;2023-03-01T05:32:59;19.70;;;11.00;;
19998;SDS011;10160;50.926;4.374;2023-03-01T05:35:27;17.00;;;10.97;;
19998;SDS011;10160;50.926;4.374;2023-03-01T05:37:54;19.30;;;11.63;;
19998;SDS011;10160;50.926;4.374;2023-03-01T05:40:21;18.83;;;11.10;;
19998;SDS011;10160;50.926;4.374;2023-03-01T05:42:53;15.17;;;10.13;;
19998;SDS011;10160;50.926;4.374;2023-03-01T05:45:21;18.20;;;10.37;;
19998;SDS011;10160;50.926;4.374;2023-03-01T05:47:48;20.00;;;11.10;;
19998;SDS011;10160;50.926;4.374;2023-03-01T05:53:11;16.80;;;10.97;;
19998;SDS011;10160;50.926;4.374;2023-03-01T05:55:41;17.77;;;11.17;;
19998;SDS011;10160;50.926;4.374;2023-03-01T05:58:09;17.63;;;10.70;;
19998;SDS011;10160;50.926;4.374;2023-03-01T06:00:37;19.27;;;10.87;;
19998;SDS011;10160;50.926;4.374;2023-03-01T06:03:03;23.53;;;11.50;;
19998;SDS011;10160;50.926;4.374;2023-03-01T06:05:28;20.73;;;11.37;;
19998;SDS011;10160;50.926;4.374;2023-03-01T06:07:54;18.57;;;10.83;;
19998;SDS011;10160;50.926;4.374;2023-03-01T06:10:23;19.87;;;10.67;;
19998;SDS011;10160;50.926;4.374;2023-03-01T06:12:51;20.90;;;11.37;;
19998;SDS011;10160;50.926;4.374;2023-03-01T06:15:18;20.90;;;12.17;;
19998;SDS011;10160;50.926;4.374;2023-03-01T06:17:44;21.00;;;10.77;;
19998;SDS011;10160;50.926;4.374;2023-03-01T06:22:42;18.37;;;11.07;;
19998;SDS011;10160;50.926;4.374;2023-03-01T06:25:09;35.23;;;11.17;;
19998;SDS011;10160;50.926;4.374;2023-03-01T06:27:35;17.70;;;11.10;;
19998;SDS011;10160;50.926;4.374;2023-03-01T06:30:01;16.70;;;10.37;;
19998;SDS011;10160;50.926;4.374;2023-03-01T06:32:28;17.83;;;10.93;;
19998;SDS011;10160;50.926;4.374;2023-03-01T06:34:53;22.97;;;11.00;;
19998;SDS011;10160;50.926;4.374;2023-03-01T06:37:19;18.13;;;10.83;;
19998;SDS011;10160;50.926;4.374;2023-03-01T06:39:46;19.70;;;11.07;;
19998;SDS011;10160;50.926;4.374;2023-03-01T06:42:12;24.07;;;10.53;;
19998;SDS011;10160;50.926;4.374;2023-03-01T06:44:39;21.57;;;11.40;;
19998;SDS011;10160;50.926;4.374;2023-03-01T06:47:05;18.80;;;10.50;;
19998;SDS011;10160;50.926;4.374;2023-03-01T06:49:30;17.03;;;10.70;;
19998;SDS011;10160;50.926;4.374;2023-03-01T06:51:56;20.43;;;11.20;;
19998;SDS011;10160;50.926;4.374;2023-03-01T06:54:22;19.03;;;11.63;;
19998;SDS011;10160;50.926;4.374;2023-03-01T06:56:49;19.90;;;12.20;;
19998;SDS011;10160;50.926;4.374;2023-03-01T06:59:15;21.37;;;12.10;;
19998;SDS011;10160;50.926;4.374;2023-03-01T07:01:41;18.37;;;11.83;;
19998;SDS011;10160;50.926;4.374;2023-03-01T07:04:08;23.57;;;12.03;;
19998;SDS011;10160;50.926;4.374;2023-03-01T07:06:34;22.37;;;10.97;;
19998;SDS011;10160;50.926;4.374;2023-03-01T07:09:00;17.77;;;10.13;;
19998;SDS011;10160;50.926;4.374;2023-03-01T07:11:26;22.17;;;10.60;;
19998;SDS011;10160;50.926;4.374;2023-03-01T07:13:51;17.70;;;10.10;;
19998;SDS011;10160;50.926;4.374;2023-03-01T07:16:17;19.03;;;10.23;;
19998;SDS011;10160;50.926;4.374;2023-03-01T07:18:45;17.33;;;10.23;;
19998;SDS011;10160;50.926;4.374;2023-03-01T07:21:11;18.43;;;9.33;;
19998;SDS011;10160;50.926;4.374;2023-03-01T07:23:38;19.27;;;9.73;;
19998;SDS011;10160;50.926;4.374;2023-03-01T07:26:04;19.43;;;10.10;;
19998;SDS011;10160;50.926;4.374;2023-03-01T07:28:30;18.60;;;10.10;;
19998;SDS011;10160;50.926;4.374;2023-03-01T07:31:01;17.97;;;10.77;;
19998;SDS011;10160;50.926;4.374;2023-03-01T07:33:27;21.37;;;10.43;;
19998;SDS011;10160;50.926;4.374;2023-03-01T07:35:57;17.43;;;10.50;;
19998;SDS011;10160;50.926;4.374;2023-03-01T07:38:23;17.70;;;10.63;;
19998;SDS011;10160;50.926;4.374;2023-03-01T07:40:51;22.83;;;10.90;;
19998;SDS011;10160;50.926;4.374;2023-03-01T07:43:17;18.23;;;9.73;;
19998;SDS011;10160;50.926;4.374;2023-03-01T07:45:42;20.40;;;10.40;;
19998;SDS011;10160;50.926;4.374;2023-03-01T07:48:08;16.07;;;9.27;;
19998;SDS011;10160;50.926;4.374;2023-03-01T07:50:34;15.57;;;9.70;;
19998;SDS011;10160;50.926;4.374;2023-03-01T07:53:00;20.27;;;9.67;;
19998;SDS011;10160;50.926;4.374;2023-03-01T07:55:26;20.17;;;10.03;;
19998;SDS011;10160;50.926;4.374;2023-03-01T07:57:51;19.80;;;10.13;;
19998;SDS011;10160;50.926;4.374;2023-03-01T08:00:17;15.60;;;8.93;;
19998;SDS011;10160;50.926;4.374;2023-03-01T08:02:43;18.67;;;9.67;;
19998;SDS011;10160;50.926;4.374;2023-03-01T08:05:09;16.87;;;9.97;;
19998;SDS011;10160;50.926;4.374;2023-03-01T08:07:35;16.17;;;9.87;;
19998;SDS011;10160;50.926;4.374;2023-03-01T08:10:01;18.50;;;10.20;;
19998;SDS011;10160;50.926;4.374;2023-03-01T08:12:27;17.50;;;10.60;;
19998;SDS011;10160;50.926;4.374;2023-03-01T08:14:54;20.20;;;10.93;;
19998;SDS011;10160;50.926;4.374;2023-03-01T08:17:20;20.30;;;11.83;;
19998;SDS011;10160;50.926;4.374;2023-03-01T08:19:46;20.53;;;12.33;;
19998;SDS011;10160;50.926;4.374;2023-03-01T08:22:11;25.10;;;12.70;;
19998;SDS011;10160;50.926;4.374;2023-03-01T08:24:43;22.07;;;12.00;;
19998;SDS011;10160;50.926;4.374;2023-03-01T08:27:09;22.33;;;11.23;;
19998;SDS011;10160;50.926;4.374;2023-03-01T08:29:35;20.23;;;11.70;;
19998;SDS011;10160;50.926;4.374;2023-03-01T08:32:02;22.83;;;11.67;;
19998;SDS011;10160;50.926;4.374;2023-03-01T08:34:28;19.90;;;11.07;;
19998;SDS011;10160;50.926;4.374;2023-03-01T08:36:54;19.47;;;10.83;;
19998;SDS011;10160;50.926;4.374;2023-03-01T08:39:19;18.77;;;11.13;;
19998;SDS011;10160;50.926;4.374;2023-03-01T08:41:47;22.43;;;11.70;;
19998;SDS011;10160;50.926;4.374;2023-03-01T08:44:14;21.63;;;11.20;;
19998;SDS011;10160;50.926;4.374;2023-03-01T08:46:41;16.77;;;11.20;;
19998;SDS011;10160;50.926;4.374;2023-03-01T08:49:11;20.80;;;10.80;;
19998;SDS011;10160;50.926;4.374;2023-03-01T08:51:38;19.73;;;11.30;;
19998;SDS011;10160;50.926;4.374;2023-03-01T08:54:12;18.80;;;10.63;;
19998;SDS011;10160;50.926;4.374;2023-03-01T08:56:39;20.67;;;10.50;;
19998;SDS011;10160;50.926;4.374;2023-03-01T08:59:06;18.70;;;11.30;;
19998;SDS011;10160;50.926;4.374;2023-03-01T09:01:32;15.83;;;10.17;;
19998;SDS011;10160;50.926;4.374;2023-03-01T09:03:58;17.70;;;10.47;;
19998;SDS011;10160;50.926;4.374;2023-03-01T09:06:25;20.03;;;10.93;;
19998;SDS011;10160;50.926;4.374;2023-03-01T09:08:51;18.87;;;10.63;;
19998;SDS011;10160;50.926;4.374;2023-03-01T09:11:18;24.23;;;10.80;;
19998;SDS011;10160;50.926;4.374;2023-03-01T09:13:46;19.43;;;11.17;;
19998;SDS011;10160;50.926;4.374;2023-03-01T09:16:14;18.33;;;11.00;;
19998;SDS011;10160;50.926;4.374;2023-03-01T09:18:42;18.03;;;10.87;;
19998;SDS011;10160;50.926;4.374;2023-03-01T09:21:13;24.70;;;10.67;;
19998;SDS011;10160;50.926;4.374;2023-03-01T09:23:41;20.27;;;10.93;;
19998;SDS011;10160;50.926;4.374;2023-03-01T09:26:13;18.30;;;10.13;;
19998;SDS011;10160;50.926;4.374;2023-03-01T09:28:44;17.67;;;10.23;;
19998;SDS011;10160;50.926;4.374;2023-03-01T09:31:11;16.47;;;10.13;;
19998;SDS011;10160;50.926;4.374;2023-03-01T09:33:38;16.17;;;9.87;;
19998;SDS011;10160;50.926;4.374;2023-03-01T09:36:06;21.13;;;10.93;;
19998;SDS011;10160;50.926;4.374;2023-03-01T09:38:34;19.77;;;10.43;;
19998;SDS011;10160;50.926;4.374;2023-03-01T09:41:00;16.57;;;10.13;;
19998;SDS011;10160;50.926;4.374;2023-03-01T09:46:09;18.53;;;10.57;;
19998;SDS011;10160;50.926;4.374;2023-03-01T09:48:43;18.23;;;9.77;;
19998;SDS011;10160;50.926;4.374;2023-03-01T09:51:26;20.40;;;10.43;;
19998;SDS011;10160;50.926;4.374;2023-03-01T09:53:57;20.20;;;10.30;;
19998;SDS011;10160;50.926;4.374;2023-03-01T09:59:30;17.97;;;11.33;;
19998;SDS011;10160;50.926;4.374;2023-03-01T10:04:54;18.93;;;10.20;;
19998;SDS011;10160;50.926;4.374;2023-03-01T10:10:34;17.63;;;10.50;;
19998;SDS011;10160;50.926;4.374;2023-03-01T10:13:04;19.83;;;10.90;;
19998;SDS011;10160;50.926;4.374;2023-03-01T10:15:50;16.37;;;10.20;;
19998;SDS011;10160;50.926;4.374;2023-03-01T10:18:23;19.83;;;9.90;;
19998;SDS011;10160;50.926;4.374;2023-03-01T10:21:02;16.00;;;9.57;;
19998;SDS011;10160;50.926;4.374;2023-03-01T10:23:38;15.40;;;9.67;;
19998;SDS011;10160;50.926;4.374;2023-03-01T10:31:29;17.90;;;9.93;;
19998;SDS011;10160;50.926;4.374;2023-03-01T10:34:17;20.13;;;9.60;;
19998;SDS011;10160;50.926;4.374;2023-03-01T10:37:09;21.03;;;9.77;;
19998;SDS011;10160;50.926;4.374;2023-03-01T10:39:36;18.37;;;9.40;;
19998;SDS011;10160;50.926;4.374;2023-03-01T10:42:19;15.70;;;9.03;;
19998;SDS011;10160;50.926;4.374;2023-03-01T10:44:51;18.80;;;9.37;;
19998;SDS011;10160;50.926;4.374;2023-03-01T10:49:53;16.77;;;8.70;;
19998;SDS011;10160;50.926;4.374;2023-03-01T10:52:27;18.73;;;8.68;;
19998;SDS011;10160;50.926;4.374;2023-03-01T10:58:17;19.95;;;8.55;;
19998;SDS011;10160;50.926;4.374;2023-03-01T11:00:54;14.32;;;8.60;;
19998;SDS011;10160;50.926;4.374;2023-03-01T11:03:23;16.52;;;8.63;;
19998;SDS011;10160;50.926;4.374;2023-03-01T11:05:53;17.30;;;8.38;;
19998;SDS011;10160;50.926;4.374;2023-03-01T11:08:41;14.43;;;8.40;;
19998;SDS011;10160;50.926;4.374;2023-03-01T11:13:53;14.27;;;8.82;;
19998;SDS011;10160;50.926;4.374;2023-03-01T11:16:28;14.50;;;8.48;;
19998;SDS011;10160;50.926;4.374;2023-03-01T11:21:53;16.33;;;8.25;;
19998;SDS011;10160;50.926;4.374;2023-03-01T11:24:44;15.52;;;9.20;;
19998;SDS011;10160;50.926;4.374;2023-03-01T11:27:19;17.02;;;8.73;;
19998;SDS011;10160;50.926;4.374;2023-03-01T11:32:24;17.73;;;8.88;;
19998;SDS011;10160;50.926;4.374;2023-03-01T11:34:54;14.25;;;8.05;;
19998;SDS011;10160;50.926;4.374;2023-03-01T11:37:33;12.80;;;7.40;;
19998;SDS011;10160;50.926;4.374;2023-03-01T11:40:22;16.98;;;8.43;;
19998;SDS011;10160;50.926;4.374;2023-03-01T11:56:49;15.40;;;8.50;;
19998;SDS011;10160;50.926;4.374;2023-03-01T12:05:00;16.75;;;8.63;;
19998;SDS011;10160;50.926;4.374;2023-03-01T12:10:23;17.20;;;8.13;;
19998;SDS011;10160;50.926;4.374;2023-03-01T12:16:06;16.65;;;9.13;;
19998;SDS011;10160;50.926;4.374;2023-03-01T12:33:05;15.23;;;7.70;;
19998;SDS011;10160;50.926;4.374;2023-03-01T12:38:18;12.40;;;7.68;;
19998;SDS011;10160;50.926;4.374;2023-03-01T12:51:30;11.90;;;7.38;;
19998;SDS011;10160;50.926;4.374;2023-03-01T12:53:58;15.63;;;8.02;;
19998;SDS011;10160;50.926;4.374;2023-03-01T12:56:30;12.52;;;7.47;;
19998;SDS011;10160;50.926;4.374;2023-03-01T12:59:12;13.07;;;7.10;;
19998;SDS011;10160;50.926;4.374;2023-03-01T13:01:54;13.60;;;7.55;;
19998;SDS011;10160;50.926;4.374;2023-03-01T13:13:19;12.85;;;8.27;;
19998;SDS011;10160;50.926;4.374;2023-03-01T13:15:49;15.30;;;8.13;;
19998;SDS011;10160;50.926;4.374;2023-03-01T13:23:09;14.20;;;8.00;;
19998;SDS011;10160;50.926;4.374;2023-03-01T13:33:49;14.18;;;8.15;;
19998;SDS011;10160;50.926;4.374;2023-03-01T13:46:44;22.60;;;10.07;;
19998;SDS011;10160;50.926;4.374;2023-03-01T13:49:11;14.35;;;8.23;;
19998;SDS011;10160;50.926;4.374;2023-03-01T13:51:41;17.42;;;9.43;;
19998;SDS011;10160;50.926;4.374;2023-03-01T13:54:11;18.38;;;8.13;;
19998;SDS011;10160;50.926;4.374;2023-03-01T13:56:39;14.50;;;8.25;;
19998;SDS011;10160;50.926;4.374;2023-03-01T13:59:18;15.32;;;7.90;;
19998;SDS011;10160;50.926;4.374;2023-03-01T14:01:51;15.10;;;8.48;;
19998;SDS011;10160;50.926;4.374;2023-03-01T14:04:27;18.05;;;8.35;;
19998;SDS011;10160;50.926;4.374;2023-03-01T14:09:47;13.73;;;8.45;;
19998;SDS011;10160;50.926;4.374;2023-03-01T14:20:27;13.50;;;8.10;;
19998;SDS011;10160;50.926;4.374;2023-03-01T14:23:01;15.13;;;7.95;;
19998;SDS011;10160;50.926;4.374;2023-03-01T14:25:35;13.88;;;7.82;;
19998;SDS011;10160;50.926;4.374;2023-03-01T14:28:19;14.18;;;8.00;;
19998;SDS011;10160;50.926;4.374;2023-03-01T14:30:52;13.18;;;8.13;;
19998;SDS011;10160;50.926;4.374;2023-03-01T14:33:26;17.95;;;8.63;;
19998;SDS011;10160;50.926;4.374;2023-03-01T14:38:30;13.93;;;8.77;;
19998;SDS011;10160;50.926;4.374;2023-03-01T14:40:57;15.27;;;8.60;;
19998;SDS011;10160;50.926;4.374;2023-03-01T14:43:26;13.90;;;8.90;;
19998;SDS011;10160;50.926;4.374;2023-03-01T14:45:53;13.55;;;8.65;;
19998;SDS011;10160;50.926;4.374;2023-03-01T14:48:19;13.13;;;8.23;;
19998;SDS011;10160;50.926;4.374;2023-03-01T14:50:45;13.53;;;8.90;;
19998;SDS011;10160;50.926;4.374;2023-03-01T14:53:15;19.77;;;8.53;;
19998;SDS011;10160;50.926;4.374;2023-03-01T14:55:54;11.93;;;8.47;;
19998;SDS011;10160;50.926;4.374;2023-03-01T14:58:23;14.97;;;9.03;;
19998;SDS011;10160;50.926;4.374;2023-03-01T15:01:00;13.90;;;8.73;;
19998;SDS011;10160;50.926;4.374;2023-03-01T15:03:31;15.43;;;8.30;;
19998;SDS011;10160;50.926;4.374;2023-03-01T15:06:00;13.20;;;8.33;;
19998;SDS011;10160;50.926;4.374;2023-03-01T15:08:28;14.80;;;9.03;;
19998;SDS011;10160;50.926;4.374;2023-03-01T15:13:39;14.87;;;8.57;;
19998;SDS011;10160;50.926;4.374;2023-03-01T15:18:45;17.53;;;9.23;;
19998;SDS011;10160;50.926;4.374;2023-03-01T15:24:00;20.70;;;9.37;;
19998;SDS011;10160;50.926;4.374;2023-03-01T15:26:32;13.77;;;9.07;;
19998;SDS011;10160;50.926;4.374;2023-03-01T15:29:01;14.23;;;8.47;;
19998;SDS011;10160;50.926;4.374;2023-03-01T15:31:32;16.60;;;9.63;;
19998;SDS011;10160;50.926;4.374;2023-03-01T15:36:47;15.77;;;9.70;;
19998;SDS011;10160;50.926;4.374;2023-03-01T15:42:05;17.20;;;9.77;;
19998;SDS011;10160;50.926;4.374;2023-03-01T15:44:48;18.97;;;10.00;;
19998;SDS011;10160;50.926;4.374;2023-03-01T15:47:25;16.80;;;9.60;;
19998;SDS011;10160;50.926;4.374;2023-03-01T15:49:55;17.67;;;9.83;;
19998;SDS011;10160;50.926;4.374;2023-03-01T15:52:29;14.10;;;9.23;;
19998;SDS011;10160;50.926;4.374;2023-03-01T15:55:02;21.93;;;9.10;;
19998;SDS011;10160;50.926;4.374;2023-03-01T15:57:31;15.03;;;9.27;;
19998;SDS011;10160;50.926;4.374;2023-03-01T15:59:56;15.70;;;9.57;;
19998;SDS011;10160;50.926;4.374;2023-03-01T16:02:23;17.33;;;9.70;;
19998;SDS011;10160;50.926;4.374;2023-03-01T16:04:49;14.03;;;9.53;;
19998;SDS011;10160;50.926;4.374;2023-03-01T16:07:15;14.57;;;9.47;;
19998;SDS011;10160;50.926;4.374;2023-03-01T16:09:41;20.17;;;8.93;;
19998;SDS011;10160;50.926;4.374;2023-03-01T16:12:12;14.97;;;9.23;;
19998;SDS011;10160;50.926;4.374;2023-03-01T16:14:39;14.57;;;9.53;;
19998;SDS011;10160;50.926;4.374;2023-03-01T16:17:05;15.20;;;8.33;;
19998;SDS011;10160;50.926;4.374;2023-03-01T16:19:33;20.37;;;8.00;;
19998;SDS011;10160;50.926;4.374;2023-03-01T16:21:58;15.07;;;9.23;;
19998;SDS011;10160;50.926;4.374;2023-03-01T16:24:24;14.17;;;8.60;;
19998;SDS011;10160;50.926;4.374;2023-03-01T16:26:51;22.50;;;8.77;;
19998;SDS011;10160;50.926;4.374;2023-03-01T16:29:16;13.90;;;7.97;;
19998;SDS011;10160;50.926;4.374;2023-03-01T16:31:42;19.73;;;8.17;;
19998;SDS011;10160;50.926;4.374;2023-03-01T16:34:07;14.27;;;8.57;;
19998;SDS011;10160;50.926;4.374;2023-03-01T16:36:33;14.77;;;7.97;;
19998;SDS011;10160;50.926;4.374;2023-03-01T16:38:59;15.20;;;8.30;;
19998;SDS011;10160;50.926;4.374;2023-03-01T16:41:25;16.40;;;8.37;;
19998;SDS011;10160;50.926;4.374;2023-03-01T16:43:52;19.67;;;7.97;;
19998;SDS011;10160;50.926;4.374;2023-03-01T16:46:19;17.93;;;8.60;;
19998;SDS011;10160;50.926;4.374;2023-03-01T16:48:50;15.67;;;8.00;;
19998;SDS011;10160;50.926;4.374;2023-03-01T16:51:16;16.83;;;7.93;;
19998;SDS011;10160;50.926;4.374;2023-03-01T16:53:43;12.73;;;8.10;;
19998;SDS011;10160;50.926;4.374;2023-03-01T16:56:09;15.20;;;7.70;;
19998;SDS011;10160;50.926;4.374;2023-03-01T16:58:36;18.60;;;9.73;;
19998;SDS011;10160;50.926;4.374;2023-03-01T17:01:07;15.33;;;9.17;;
19998;SDS011;10160;50.926;4.374;2023-03-01T17:03:35;12.27;;;8.17;;
19998;SDS011;10160;50.926;4.374;2023-03-01T17:06:06;11.93;;;7.20;;
19998;SDS011;10160;50.926;4.374;2023-03-01T17:08:37;15.03;;;8.00;;
19998;SDS011;10160;50.926;4.374;2023-03-01T17:11:04;13.90;;;8.13;;
19998;SDS011;10160;50.926;4.374;2023-03-01T17:13:35;14.13;;;7.57;;
19998;SDS011;10160;50.926;4.374;2023-03-01T17:16:06;15.80;;;8.23;;
19998;SDS011;10160;50.926;4.374;2023-03-01T17:18:33;12.40;;;7.67;;
19998;SDS011;10160;50.926;4.374;2023-03-01T17:20:59;20.83;;;9.10;;
19998;SDS011;10160;50.926;4.374;2023-03-01T17:23:26;15.57;;;8.10;;
19998;SDS011;10160;50.926;4.374;2023-03-01T17:25:52;12.07;;;8.07;;